Gold Coast Seaway, Australia
Current Conditions -  °F | °C
As of 10:00 AM on Tuesday 25 Nov 2014 (Local Time) from YBCG Reporting Station
Clear Clear  
Wind Chill: 81°   Ceiling: Unl
Heat Index: 81°   Visibility: 6mi
Dew Point: 61°   Wind: 20mph
Humidity: 51%   Direction: 360°N
Pressure: 29.94"   Gusts: NA
Location:  27.93°S, 153.43°E
Report Text: YBCG 250000Z AUTO 36017KT 9999 // NCD 27/16 Q1014
Loading
Personal Weather Stations






























Interactive Weather Map New forecast layout! Learn more

10-Day Weather Forecast

Advertisements
Track Severe Weather on mobile